Terminal Aerodrome Forecast
Issued by NWS St Louis, MO

Home | Current Version | Previous Version | Text Only | Print | Product List | Glossary On
Versions: 1 2 3 4 5 6 7 8 9 10 11 12 13 14 15 16 17 18 19 20 21
000
FTUS43 KLSX 031728
TAFSTL
TAF
KSTL 031728Z 0318/0424 31006KT P6SM SCT040 SCT250
     FM032100 31006KT P6SM VCTS SCT040CB SCT250
     FM040100 36004KT P6SM SCT050 SCT250
     FM041900 VRB04KT P6SM VCTS SCT040CB SCT250=

USA.gov is the U.S. government's official web portal to all federal, state and local government web resources and services.